Time;durP1;ratioP1;P1;durP2;ratioP2;P2;SDS_P1;SDS_P2;PMS_P1;PMS_P2;Temp;Humidity;BMP_temperature;BMP_pressure;BME280_temperature;BME280_humidity;BME280_pressure;Samples;Min_cycle;Max_cycle;Signal;HPM_P1;HPM_P2
2023/06/20 00:00:55;;;;;;;;;18.00;16.50;;;;;25.51;45.20;98807.44;5092964;27;45486;-56
2023/06/20 00:03:20;;;;;;;;;20.50;18.75;;;;;25.44;45.37;98803.72;5093215;27;45455;-56
2023/06/20 00:05:46;;;;;;;;;19.50;17.50;;;;;25.44;45.23;98808.28;5093319;27;45444;-55
2023/06/20 00:08:11;;;;;;;;;20.00;19.00;;;;;25.42;45.49;98813.00;5092329;27;45424;-56
2023/06/20 00:10:37;;;;;;;;;23.50;19.50;;;;;25.42;45.15;98818.41;5092544;27;45316;-56
2023/06/20 00:13:03;;;;;;;;;17.25;15.75;;;;;25.37;45.19;98808.94;5092718;27;45524;-56
2023/06/20 00:15:29;;;;;;;;;20.75;18.50;;;;;25.36;45.40;98812.63;5092840;27;45513;-56
2023/06/20 00:17:55;;;;;;;;;18.00;18.00;;;;;25.31;45.56;98820.34;5092952;27;45419;-56
2023/06/20 00:20:21;;;;;;;;;17.25;16.25;;;;;25.19;45.74;98818.13;5092841;27;45646;-56
2023/06/20 00:22:50;;;;;;;;;22.75;15.75;;;;;25.03;45.71;98822.44;5092792;27;45501;-56
2023/06/20 00:25:16;;;;;;;;;14.00;13.00;;;;;24.94;45.59;98827.94;5090499;27;46470;-56
2023/06/20 00:27:42;;;;;;;;;11.75;11.00;;;;;24.78;45.85;98817.03;5092086;27;45507;-55
2023/06/20 00:30:08;;;;;;;;;15.75;15.00;;;;;24.61;45.92;98837.63;5092213;27;45557;-55
2023/06/20 00:32:33;;;;;;;;;19.25;16.50;;;;;24.46;46.00;98840.06;5092501;27;45542;-55
2023/06/20 00:34:58;;;;;;;;;15.00;15.00;;;;;24.30;46.35;98818.31;5092469;27;46594;-55
2023/06/20 00:37:27;;;;;;;;;15.00;15.00;;;;;24.09;46.26;98831.25;5091710;27;45569;-55
2023/06/20 00:39:53;;;;;;;;;14.00;13.75;;;;;23.94;46.88;98822.88;5092426;27;45677;-55
2023/06/20 00:42:23;;;;;;;;;12.75;12.00;;;;;23.85;47.19;98821.94;5091681;27;45585;-56
2023/06/20 00:44:49;;;;;;;;;15.00;12.25;;;;;23.79;47.61;98832.47;5092696;27;46178;-56
2023/06/20 00:47:16;;;;;;;;;13.25;13.25;;;;;23.72;47.44;98817.91;5092895;27;45421;-56
2023/06/20 00:49:44;;;;;;;;;15.75;15.75;;;;;23.66;47.65;98819.38;5092695;27;45386;-56
2023/06/20 00:52:11;;;;;;;;;16.75;14.50;;;;;23.54;47.98;98816.03;5092188;27;45535;-56
2023/06/20 00:54:37;;;;;;;;;16.25;16.25;;;;;23.50;47.88;98822.69;5092242;27;46570;-55
2023/06/20 00:57:03;;;;;;;;;18.25;15.25;;;;;23.45;48.47;98818.78;5092191;27;45332;-55
2023/06/20 00:59:29;;;;;;;;;16.50;14.25;;;;;23.38;49.29;98817.66;5091588;27;45524;-57
2023/06/20 01:01:54;;;;;;;;;12.25;10.75;;;;;23.32;49.26;98821.78;5092186;27;45424;-57
2023/06/20 01:04:20;;;;;;;;;15.25;13.75;;;;;23.31;49.26;98806.66;5091961;27;45475;-56
2023/06/20 01:07:03;;;;;;;;;15.25;15.25;;;;;23.30;48.74;98804.94;5092183;27;45606;-54
2023/06/20 01:09:32;;;;;;;;;19.00;17.25;;;;;23.32;49.13;98803.81;5092045;27;45413;-55
2023/06/20 01:12:08;;;;;;;;;19.00;17.25;;;;;23.36;49.18;98806.22;5091147;27;45419;-56
2023/06/20 01:14:49;;;;;;;;;17.75;16.50;;;;;23.40;49.11;98802.22;5091725;27;46706;-55
2023/06/20 01:17:24;;;;;;;;;18.75;15.50;;;;;23.39;49.04;98803.22;5089811;27;45460;-57
2023/06/20 01:20:16;;;;;;;;;16.50;15.25;;;;;23.39;49.26;98822.91;5090657;27;45501;-56
2023/06/20 01:23:02;;;;;;;;;15.00;14.50;;;;;23.42;49.16;98819.91;5095044;27;45590;-58
2023/06/20 01:25:54;;;;;;;;;10.25;10.25;;;;;23.43;49.80;98810.00;5109686;27;47585;-56
2023/06/20 01:28:42;;;;;;;;;19.25;16.50;;;;;23.36;49.83;98817.81;5094627;27;45470;-57
2023/06/20 01:31:11;;;;;;;;;16.50;16.00;;;;;23.33;49.18;98828.88;5094813;27;45532;-56
2023/06/20 01:33:51;;;;;;;;;15.25;14.25;;;;;23.31;49.67;98820.94;5095063;27;45427;-59
2023/06/20 01:36:20;;;;;;;;;14.50;12.25;;;;;23.28;50.01;98818.56;5092647;27;45516;-56
2023/06/20 01:38:49;;;;;;;;;15.25;15.25;;;;;23.26;49.64;98817.03;5094939;27;45454;-56
2023/06/20 01:41:19;;;;;;;;;12.50;12.50;;;;;23.24;49.75;98821.72;5094572;27;45467;-56
2023/06/20 01:43:47;;;;;;;;;14.00;12.75;;;;;23.22;49.86;98831.75;5092889;27;45581;-54
2023/06/20 01:46:14;;;;;;;;;15.00;15.00;;;;;23.26;49.86;98825.94;5095382;27;45730;-56
2023/06/20 01:48:41;;;;;;;;;18.00;15.75;;;;;23.30;49.97;98815.72;5094902;27;45484;-56
2023/06/20 01:51:07;;;;;;;;;22.25;17.75;;;;;23.34;50.09;98825.19;5076335;27;45424;-55
2023/06/20 01:53:34;;;;;;;;;20.00;17.50;;;;;23.35;50.22;98829.56;5076365;27;45582;-55
2023/06/20 01:56:01;;;;;;;;;15.75;14.75;;;;;23.37;49.78;98822.19;5095422;27;45437;-56
2023/06/20 01:58:29;;;;;;;;;16.00;16.00;;;;;23.39;49.25;98833.66;5092320;27;45616;-57
2023/06/20 02:00:57;;;;;;;;;14.25;14.00;;;;;23.39;49.57;98833.66;5092796;27;45554;-56
2023/06/20 02:03:26;;;;;;;;;17.25;15.25;;;;;23.39;49.43;98840.88;5095241;27;45387;-56
2023/06/20 02:05:53;;;;;;;;;13.75;13.75;;;;;23.33;49.48;98836.94;5092747;27;46319;-56
2023/06/20 02:08:19;;;;;;;;;16.50;16.00;;;;;23.27;49.59;98827.66;5092611;27;45522;-56
2023/06/20 02:10:44;;;;;;;;;16.75;16.75;;;;;23.25;49.39;98828.78;5095003;27;45701;-56
2023/06/20 02:13:12;;;;;;;;;17.00;15.00;;;;;23.17;50.29;98834.03;5094505;27;45480;-55
2023/06/20 02:15:38;;;;;;;;;12.50;12.25;;;;;23.08;49.94;98827.72;5094540;27;45488;-56
2023/06/20 02:18:03;;;;;;;;;15.00;15.00;;;;;23.00;50.12;98830.28;5094330;27;45528;-56
2023/06/20 02:20:30;;;;;;;;;18.00;17.00;;;;;22.95;50.51;98832.59;5094533;27;45470;-56
2023/06/20 02:22:55;;;;;;;;;16.75;16.75;;;;;22.91;50.31;98834.72;5094131;27;45417;-56
2023/06/20 02:25:26;;;;;;;;;12.25;12.25;;;;;22.86;50.25;98833.44;5093814;27;45410;-55
2023/06/20 02:27:53;;;;;;;;;15.75;15.25;;;;;22.81;50.78;98839.25;5093827;27;45388;-56
2023/06/20 02:30:23;;;;;;;;;12.75;11.25;;;;;22.78;51.28;98836.88;5094034;27;45483;-56
2023/06/20 02:32:49;;;;;;;;;15.75;15.00;;;;;22.68;51.79;98827.09;5093700;27;45863;-56
2023/06/20 02:35:17;;;;;;;;;18.00;15.00;;;;;22.55;52.09;98852.44;5093768;27;45463;-56
2023/06/20 02:37:44;;;;;;;;;13.50;13.50;;;;;22.49;51.69;98828.81;5093930;27;45388;-56
2023/06/20 02:40:10;;;;;;;;;16.25;16.25;;;;;22.44;52.86;98824.91;5092867;27;45443;-56
2023/06/20 02:42:36;;;;;;;;;16.75;15.75;;;;;22.42;52.42;98845.69;5093362;27;45399;-56
2023/06/20 02:45:02;;;;;;;;;16.75;16.00;;;;;22.42;52.58;98843.84;5094184;27;46150;-56
2023/06/20 02:48:00;;;;;;;;;15.50;14.25;;;;;22.42;52.57;98849.22;5094408;27;45776;-56
2023/06/20 02:50:32;;;;;;;;;19.00;15.75;;;;;22.42;52.32;98856.41;5094357;27;45524;-56
2023/06/20 02:53:16;;;;;;;;;13.50;13.50;;;;;22.40;52.82;98853.03;5094095;27;45420;-56
2023/06/20 02:55:44;;;;;;;;;17.50;15.00;;;;;22.37;53.39;98847.94;5093925;27;46333;-56
2023/06/20 02:58:12;;;;;;;;;18.25;16.50;;;;;22.37;52.94;98862.22;5075315;27;45562;-56
2023/06/20 03:00:43;;;;;;;;;19.50;16.50;;;;;22.40;53.05;98858.41;5093881;27;45825;-56
2023/06/20 03:03:13;;;;;;;;;18.00;16.50;;;;;22.43;53.01;98842.84;5074912;27;45530;-56
2023/06/20 03:05:44;;;;;;;;;17.25;15.75;;;;;22.44;52.83;98844.53;5093659;27;46477;-56
2023/06/20 03:08:12;;;;;;;;;14.50;14.25;;;;;22.43;52.84;98847.38;5093762;27;45544;-56
2023/06/20 03:10:40;;;;;;;;;16.25;16.00;;;;;22.44;52.67;98841.00;5094423;27;45385;-56
2023/06/20 03:13:05;;;;;;;;;18.00;15.50;;;;;22.47;53.15;98846.06;5093414;27;45419;-56
2023/06/20 03:15:31;;;;;;;;;18.50;16.00;;;;;22.50;52.75;98841.28;5093753;27;46378;-56
2023/06/20 03:18:00;;;;;;;;;16.00;14.75;;;;;22.51;52.85;98861.78;5093929;27;45374;-56
2023/06/20 03:20:28;;;;;;;;;16.75;15.50;;;;;22.53;52.64;98850.88;5093492;27;45546;-56
2023/06/20 03:22:54;;;;;;;;;13.75;11.50;;;;;22.55;52.64;98843.53;5093118;27;45429;-56
2023/06/20 03:25:20;;;;;;;;;16.25;16.25;;;;;22.55;52.62;98846.22;5074919;27;48170;-56
2023/06/20 03:27:45;;;;;;;;;19.00;17.00;;;;;22.56;53.19;98848.75;5074497;27;45462;-56
2023/06/20 03:30:11;;;;;;;;;19.00;18.50;;;;;22.55;52.90;98844.38;5093175;27;45519;-57
2023/06/20 03:32:36;;;;;;;;;20.00;16.00;;;;;22.56;53.24;98854.13;5092833;27;45577;-56
2023/06/20 03:35:04;;;;;;;;;18.25;17.00;;;;;22.56;53.06;98848.75;5093538;27;45503;-56
2023/06/20 03:37:29;;;;;;;;;18.50;17.00;;;;;22.57;52.87;98844.25;5093618;27;45559;-56
2023/06/20 03:39:55;;;;;;;;;20.75;19.25;;;;;22.59;53.05;98848.47;5093575;27;45566;-57
2023/06/20 03:42:20;;;;;;;;;16.50;16.50;;;;;22.61;53.12;98853.72;5093119;27;45479;-57
2023/06/20 03:44:45;;;;;;;;;23.00;18.25;;;;;22.61;53.19;98846.50;5091860;27;46132;-56
2023/06/20 03:47:11;;;;;;;;;17.00;17.00;;;;;22.61;53.08;98843.81;5093020;27;45482;-56
2023/06/20 03:49:37;;;;;;;;;24.00;22.50;;;;;22.62;53.42;98848.16;5093407;27;45480;-57
2023/06/20 03:52:02;;;;;;;;;17.75;17.75;;;;;22.66;53.29;98853.25;5092707;27;45338;-56
2023/06/20 03:54:28;;;;;;;;;26.00;22.25;;;;;22.68;53.62;98856.66;5092812;27;47079;-55
2023/06/20 03:56:53;;;;;;;;;28.75;24.75;;;;;22.72;53.67;98852.69;5074433;27;45696;-56
2023/06/20 03:59:18;;;;;;;;;26.50;22.75;;;;;22.75;53.42;98852.41;5090970;27;45282;-58
2023/06/20 04:01:44;;;;;;;;;23.50;20.75;;;;;22.76;53.73;98852.28;5089402;27;45496;-57
2023/06/20 04:04:09;;;;;;;;;20.25;20.00;;;;;22.77;53.32;98855.84;5091146;27;46282;-57
2023/06/20 04:06:35;;;;;;;;;20.00;20.00;;;;;22.77;53.64;98861.22;5072461;27;45679;-57
2023/06/20 04:09:00;;;;;;;;;21.25;20.50;;;;;22.76;53.71;98859.47;5074161;27;45552;-56
2023/06/20 04:11:26;;;;;;;;;17.00;16.75;;;;;22.75;53.48;98855.94;5091749;27;45422;-57
2023/06/20 04:13:51;;;;;;;;;21.00;19.00;;;;;22.77;54.04;98858.53;5091446;27;45412;-56
2023/06/20 04:16:16;;;;;;;;;34.00;31.00;;;;;22.76;54.20;98863.03;5087734;27;45503;-56
2023/06/20 04:18:42;;;;;;;;;22.75;21.00;;;;;22.80;54.26;98872.50;5093676;27;45925;-56
2023/06/20 04:21:07;;;;;;;;;20.50;18.00;;;;;22.79;54.01;98865.44;5093091;27;45495;-55
2023/06/20 04:23:33;;;;;;;;;21.00;20.25;;;;;22.81;53.87;98865.28;5093250;27;46524;-56
2023/06/20 04:25:59;;;;;;;;;21.75;18.25;;;;;22.81;53.84;98868.81;5092574;27;45468;-56
2023/06/20 04:28:24;;;;;;;;;19.50;18.25;;;;;22.83;54.52;98876.75;5092824;27;45382;-56
2023/06/20 04:30:52;;;;;;;;;19.00;14.25;;;;;22.87;54.37;98862.03;5093465;27;45487;-57
2023/06/20 04:33:19;;;;;;;;;25.25;22.50;;;;;22.89;54.79;98862.72;5088263;27;46477;-57
2023/06/20 04:35:44;;;;;;;;;25.50;24.00;;;;;22.91;54.36;98866.13;5089719;27;45428;-56
2023/06/20 04:38:09;;;;;;;;;21.25;20.75;;;;;22.93;54.45;98858.78;5083194;27;45622;-57
2023/06/20 04:40:35;;;;;;;;;21.50;19.50;;;;;22.96;54.53;98862.00;5089735;27;45457;-58
2023/06/20 04:43:00;;;;;;;;;20.00;19.25;;;;;22.98;55.03;98867.22;5091651;27;45424;-56
2023/06/20 04:45:25;;;;;;;;;21.00;20.50;;;;;23.04;54.77;98869.34;5092710;27;45371;-56
2023/06/20 04:47:51;;;;;;;;;23.75;22.50;;;;;23.09;54.60;98864.38;5086492;27;45501;-56
2023/06/20 04:50:16;;;;;;;;;24.50;23.00;;;;;23.13;54.23;98860.38;5088658;27;45481;-56
2023/06/20 04:52:42;;;;;;;;;22.75;21.00;;;;;23.18;54.57;98862.63;5092717;27;45421;-56
2023/06/20 04:55:08;;;;;;;;;19.25;17.00;;;;;23.21;54.78;98865.03;5093980;27;45432;-56
2023/06/20 04:57:33;;;;;;;;;19.50;18.50;;;;;23.23;54.95;98861.22;5090223;27;45446;-56
2023/06/20 04:59:59;;;;;;;;;22.00;20.00;;;;;23.27;54.92;98859.91;5081947;27;45543;-56
2023/06/20 05:02:26;;;;;;;;;21.00;19.00;;;;;23.30;55.25;98856.06;5080451;27;45564;-57
2023/06/20 05:04:51;;;;;;;;;18.75;18.00;;;;;23.33;54.98;98856.63;5085744;27;45547;-56
2023/06/20 05:07:17;;;;;;;;;21.25;21.00;;;;;23.36;55.23;98851.94;5083335;27;45461;-56
2023/06/20 05:09:43;;;;;;;;;20.50;19.50;;;;;23.40;55.20;98861.41;5095544;27;45398;-57
2023/06/20 05:12:08;;;;;;;;;19.25;19.25;;;;;23.46;55.27;98866.22;5089442;27;46305;-56
2023/06/20 05:14:34;;;;;;;;;16.25;16.25;;;;;23.49;55.17;98855.97;5082737;27;45533;-55
2023/06/20 05:16:59;;;;;;;;;23.25;21.50;;;;;23.48;55.01;98853.44;5093618;27;45410;-56
2023/06/20 05:19:24;;;;;;;;;21.75;20.00;;;;;23.47;55.33;98851.72;5094047;27;45448;-56
2023/06/20 05:21:50;;;;;;;;;20.75;20.75;;;;;23.51;55.17;98858.53;5093852;27;46180;-56
2023/06/20 05:24:15;;;;;;;;;27.75;23.00;;;;;23.55;55.08;98854.56;5072933;28;45386;-56
2023/06/20 05:26:41;;;;;;;;;21.75;21.00;;;;;23.57;55.11;98852.59;5087381;27;45449;-56
2023/06/20 05:29:06;;;;;;;;;26.25;22.75;;;;;23.58;55.06;98848.91;5095289;27;45464;-56
2023/06/20 05:31:32;;;;;;;;;19.25;18.50;;;;;23.56;55.05;98854.44;5085851;27;46504;-56
2023/06/20 05:33:57;;;;;;;;;20.00;18.50;;;;;23.54;55.14;98848.34;5080145;27;45464;-55
2023/06/20 05:36:23;;;;;;;;;23.75;20.50;;;;;23.53;54.91;98846.66;5093579;27;45487;-56
2023/06/20 05:38:48;;;;;;;;;22.00;19.00;;;;;23.57;55.31;98842.66;5095481;27;45575;-56
2023/06/20 05:41:17;;;;;;;;;22.50;21.00;;;;;23.65;54.94;98848.13;5093298;27;45575;-57
2023/06/20 05:43:42;;;;;;;;;21.25;21.25;;;;;23.71;55.17;98843.16;5095843;27;45345;-56
2023/06/20 05:46:08;;;;;;;;;22.50;21.50;;;;;23.73;55.10;98844.69;5095148;27;45298;-56
2023/06/20 05:48:34;;;;;;;;;22.00;19.75;;;;;23.74;55.26;98842.84;5094786;27;45565;-65
2023/06/20 05:51:00;;;;;;;;;24.25;21.25;;;;;23.74;55.09;98845.53;5095483;27;45487;-59
2023/06/20 05:53:27;;;;;;;;;19.50;19.50;;;;;23.76;55.74;98835.47;5095337;27;45515;-65
2023/06/20 05:55:52;;;;;;;;;25.75;22.00;;;;;23.81;55.47;98834.00;5091369;27;45382;-66
2023/06/20 05:58:18;;;;;;;;;19.25;19.25;;;;;23.84;55.60;98836.38;5091775;27;45460;-66
2023/06/20 06:00:45;;;;;;;;;21.50;21.50;;;;;23.88;55.43;98826.16;5091997;27;46858;-66
2023/06/20 06:03:11;;;;;;;;;30.00;27.00;;;;;23.90;55.59;98830.41;5090481;27;45551;-66
2023/06/20 06:05:36;;;;;;;;;23.25;22.00;;;;;23.92;56.03;98830.25;5076130;27;45420;-66
2023/06/20 06:08:02;;;;;;;;;30.75;27.25;;;;;23.96;55.80;98819.00;5080363;27;45670;-65
2023/06/20 06:10:27;;;;;;;;;22.75;22.25;;;;;23.98;55.46;98816.16;5090903;27;45504;-65
2023/06/20 06:12:52;;;;;;;;;23.50;19.50;;;;;24.01;55.84;98822.09;5087036;27;45467;-65
2023/06/20 06:15:18;;;;;;;;;20.75;20.00;;;;;24.02;55.84;98828.31;5076687;27;45563;-66
2023/06/20 06:17:43;;;;;;;;;23.00;21.00;;;;;24.03;56.07;98832.72;5087875;27;45528;-65
2023/06/20 06:20:14;;;;;;;;;21.25;21.25;;;;;24.02;55.88;98834.56;5094164;27;46060;-66
2023/06/20 06:22:39;;;;;;;;;21.00;20.00;;;;;24.08;56.36;98830.41;5094953;27;45450;-66
2023/06/20 06:25:07;;;;;;;;;22.75;21.00;;;;;24.12;56.17;98828.25;5095130;27;45926;-66
2023/06/20 06:27:34;;;;;;;;;31.75;26.50;;;;;24.17;56.29;98828.63;5094656;27;45439;-65
2023/06/20 06:29:59;;;;;;;;;25.25;23.75;;;;;24.22;55.97;98827.19;5094603;27;45650;-66
2023/06/20 06:32:25;;;;;;;;;20.25;18.25;;;;;24.30;56.37;98829.09;5085155;27;45537;-66
2023/06/20 06:34:52;;;;;;;;;25.50;23.50;;;;;24.38;56.28;98828.34;5082299;27;45526;-65
2023/06/20 06:37:18;;;;;;;;;24.25;23.50;;;;;24.44;56.00;98820.50;5069307;27;45558;-65
2023/06/20 06:39:43;;;;;;;;;28.50;25.25;;;;;24.50;55.82;98819.84;5091133;27;46234;-66
2023/06/20 06:42:09;;;;;;;;;23.00;19.75;;;;;24.57;55.86;98820.06;5078761;27;45532;-66
2023/06/20 06:44:34;;;;;;;;;26.25;24.50;;;;;24.62;55.68;98824.00;5074128;27;45532;-65
2023/06/20 06:47:01;;;;;;;;;24.50;24.50;;;;;24.68;55.38;98820.66;5086050;27;45555;-66
2023/06/20 06:49:27;;;;;;;;;20.75;19.75;;;;;24.72;55.00;98823.03;5080107;27;45503;-65
2023/06/20 06:51:53;;;;;;;;;23.75;22.50;;;;;24.75;54.62;98822.72;5082972;27;45464;-66
2023/06/20 06:54:19;;;;;;;;;20.50;20.50;;;;;24.82;54.71;98821.06;5078473;27;45500;-66
2023/06/20 06:56:45;;;;;;;;;22.00;21.50;;;;;24.90;54.33;98823.84;5081203;27;45416;-67
2023/06/20 06:59:11;;;;;;;;;25.00;24.00;;;;;25.00;53.90;98827.28;5088034;27;45385;-66
2023/06/20 07:01:36;;;;;;;;;24.75;23.75;;;;;25.08;53.88;98821.09;5094586;27;45428;-66
2023/06/20 07:04:01;;;;;;;;;25.25;23.75;;;;;25.14;53.37;98825.84;5090257;27;45473;-66
2023/06/20 07:06:27;;;;;;;;;25.75;24.25;;;;;25.20;53.08;98822.50;5087140;27;45411;-66
2023/06/20 07:08:54;;;;;;;;;14.00;14.00;;;;;25.27;53.06;98823.56;5086051;27;45325;-66
2023/06/20 07:11:20;;;;;;;;;21.50;21.00;;;;;25.38;52.79;98834.06;5083229;27;45498;-66
2023/06/20 07:13:46;;;;;;;;;19.00;18.75;;;;;25.49;52.39;98828.34;5086052;27;45444;-66
2023/06/20 07:16:11;;;;;;;;;21.00;17.75;;;;;25.58;52.51;98829.25;5087269;27;45435;-66
2023/06/20 07:18:37;;;;;;;;;19.00;18.00;;;;;25.67;52.02;98830.97;5090797;27;46014;-66
2023/06/20 07:21:03;;;;;;;;;20.60;15.80;;;;;25.73;51.62;98836.59;5093362;27;45418;-66
2023/06/20 07:23:29;;;;;;;;;22.75;21.50;;;;;25.78;51.67;98830.69;5082862;27;45639;-66
2023/06/20 07:25:54;;;;;;;;;26.75;22.25;;;;;25.85;51.60;98828.16;5084412;27;45363;-66
2023/06/20 07:28:19;;;;;;;;;26.50;23.75;;;;;25.91;51.82;98825.66;5085535;27;45369;-66
2023/06/20 07:30:45;;;;;;;;;19.75;19.75;;;;;26.01;51.96;98831.75;5082000;27;45434;-66
2023/06/20 07:33:10;;;;;;;;;17.50;17.50;;;;;26.12;51.65;98829.75;5095943;27;45485;-66
2023/06/20 07:35:36;;;;;;;;;23.00;22.50;;;;;26.22;51.84;98828.56;5083151;27;45454;-66
2023/06/20 07:38:01;;;;;;;;;22.75;21.50;;;;;26.28;51.64;98822.50;5090440;27;45812;-66
2023/06/20 07:40:26;;;;;;;;;23.00;21.75;;;;;26.34;51.46;98827.25;5088779;27;45360;-66
2023/06/20 07:42:52;;;;;;;;;23.50;21.75;;;;;26.41;51.41;98836.38;5084893;27;45530;-66
2023/06/20 07:45:17;;;;;;;;;22.50;22.50;;;;;26.50;51.68;98834.50;5086388;27;45453;-66
2023/06/20 07:47:43;;;;;;;;;25.25;23.50;;;;;26.61;51.57;98825.22;5078996;27;45466;-66
2023/06/20 07:50:09;;;;;;;;;20.75;20.75;;;;;26.63;51.86;98815.94;5081316;27;45460;-66
2023/06/20 07:52:34;;;;;;;;;21.50;21.50;;;;;26.68;51.37;98818.94;5082438;27;45400;-66
2023/06/20 07:55:01;;;;;;;;;26.00;22.75;;;;;26.72;51.71;98820.31;5081436;27;45647;-66
2023/06/20 07:57:27;;;;;;;;;22.50;22.00;;;;;26.74;51.21;98826.38;5079704;27;45661;-66
2023/06/20 07:59:52;;;;;;;;;26.25;23.25;;;;;26.72;51.23;98819.44;5066608;27;45447;-66
2023/06/20 08:02:18;;;;;;;;;24.25;23.75;;;;;26.74;51.62;98806.59;5069919;27;45464;-66
2023/06/20 08:04:43;;;;;;;;;22.00;21.00;;;;;26.80;51.56;98813.19;5081627;27;45356;-66
2023/06/20 08:07:09;;;;;;;;;21.50;19.00;;;;;26.85;51.77;98803.53;5082583;27;46357;-66
2023/06/20 08:09:34;;;;;;;;;27.75;25.50;;;;;26.89;51.54;98806.75;5081305;27;45534;-66
2023/06/20 08:12:00;;;;;;;;;23.00;22.25;;;;;26.90;51.77;98794.91;5081534;27;45838;-66
2023/06/20 08:14:25;;;;;;;;;25.50;22.50;;;;;26.92;51.42;98791.00;5078468;27;45558;-66
2023/06/20 08:16:50;;;;;;;;;26.00;25.25;;;;;27.00;51.44;98790.16;5089675;27;46114;-66
2023/06/20 08:19:16;;;;;;;;;25.75;24.00;;;;;27.07;51.13;98783.88;5098419;27;45412;-66
2023/06/20 08:21:41;;;;;;;;;27.00;27.00;;;;;27.17;51.41;98788.25;5081211;27;45408;-66
2023/06/20 08:24:07;;;;;;;;;27.75;26.00;;;;;27.24;51.37;98781.13;5083781;27;45503;-66
2023/06/20 08:26:32;;;;;;;;;31.75;27.50;;;;;27.32;50.83;98781.06;5084147;27;45491;-66
2023/06/20 08:28:57;;;;;;;;;29.25;26.00;;;;;27.37;51.03;98779.53;5080065;27;45408;-65
2023/06/20 08:31:28;;;;;;;;;24.75;24.00;;;;;27.43;51.11;98780.69;5090973;27;45739;-65
2023/06/20 08:33:54;;;;;;;;;23.50;22.00;;;;;27.49;50.89;98777.25;5084996;27;45572;-65
2023/06/20 08:36:20;;;;;;;;;27.75;26.50;;;;;27.56;51.24;98782.81;5084364;27;45414;-65
2023/06/20 08:38:46;;;;;;;;;25.25;25.25;;;;;27.62;50.73;98777.59;5083446;27;45499;-66
2023/06/20 08:41:11;;;;;;;;;24.50;24.50;;;;;27.70;50.03;98779.38;5085901;27;46104;-65
2023/06/20 08:43:37;;;;;;;;;25.75;24.50;;;;;27.72;50.17;98788.19;5086271;27;45588;-65
2023/06/20 08:46:02;;;;;;;;;26.75;25.75;;;;;27.73;50.82;98792.56;5084174;27;46133;-65
2023/06/20 08:48:28;;;;;;;;;26.00;25.50;;;;;27.77;50.26;98788.50;5084171;27;45354;-65
2023/06/20 08:50:53;;;;;;;;;21.75;20.00;;;;;27.78;50.03;98779.34;5085525;27;45581;-65
2023/06/20 08:53:20;;;;;;;;;25.25;23.25;;;;;27.79;50.13;98783.75;5088958;27;45426;-65
2023/06/20 08:55:46;;;;;;;;;28.75;24.75;;;;;27.80;50.43;98782.72;5085544;27;45458;-65
2023/06/20 08:58:11;;;;;;;;;27.00;26.00;;;;;27.84;50.84;98781.31;5084448;27;45414;-66
2023/06/20 09:00:38;;;;;;;;;25.00;23.50;;;;;27.88;50.15;98774.53;5090509;27;45776;-65
2023/06/20 09:03:04;;;;;;;;;27.50;26.50;;;;;27.86;50.64;98783.84;5089659;27;45395;-65
2023/06/20 09:05:40;;;;;;;;;23.00;22.50;;;;;27.89;50.40;98780.78;5089121;27;45502;-66
2023/06/20 09:08:06;;;;;;;;;30.75;26.75;;;;;27.90;50.50;98775.19;5083451;27;45570;-65
2023/06/20 09:10:33;;;;;;;;;21.75;20.00;;;;;27.91;50.68;98776.88;5089589;27;45556;-65
2023/06/20 09:12:58;;;;;;;;;26.75;24.75;;;;;27.99;50.99;98778.69;5084518;27;45519;-65
2023/06/20 09:15:26;;;;;;;;;29.25;27.00;;;;;28.09;50.47;98779.28;5083723;27;47090;-65
2023/06/20 09:17:52;;;;;;;;;23.75;23.75;;;;;28.15;50.12;98771.25;5082945;27;45508;-64
2023/06/20 09:20:18;;;;;;;;;20.25;19.00;;;;;28.11;49.65;98790.81;5084809;27;45604;-65
2023/06/20 09:22:43;;;;;;;;;26.25;23.75;;;;;28.06;50.10;98790.50;5083890;27;45510;-65
2023/06/20 09:25:10;;;;;;;;;20.75;20.00;;;;;28.05;50.48;98786.94;5088081;27;45939;-65
2023/06/20 09:27:38;;;;;;;;;25.50;25.00;;;;;28.11;49.94;98786.22;5088932;27;45450;-65
2023/06/20 09:30:05;;;;;;;;;21.25;21.25;;;;;28.21;50.21;98777.03;5088111;27;45518;-66
2023/06/20 09:32:39;;;;;;;;;24.00;21.75;;;;;28.26;48.90;98783.59;5084045;27;45634;-66
2023/06/20 09:35:07;;;;;;;;;22.75;21.00;;;;;28.18;48.76;98785.47;5082855;27;46137;-65
2023/06/20 09:37:41;;;;;;;;;25.75;23.25;;;;;28.07;48.84;98776.75;5082305;27;45499;-66
2023/06/20 09:40:11;;;;;;;;;23.50;23.50;;;;;28.07;49.05;98784.91;5083737;27;45450;-66
2023/06/20 09:42:41;;;;;;;;;21.75;21.75;;;;;28.09;49.10;98782.00;5082790;27;45384;-65
2023/06/20 09:45:08;;;;;;;;;22.75;22.00;;;;;28.11;48.82;98786.22;5088196;27;46708;-65
2023/06/20 09:47:36;;;;;;;;;20.75;20.75;;;;;28.11;48.40;98783.50;5083324;27;45523;-65
2023/06/20 09:50:05;;;;;;;;;22.75;20.75;;;;;28.07;48.33;98781.34;5086404;27;45590;-65
2023/06/20 09:53:23;;;;;;;;;25.00;21.50;;;;;28.09;46.95;98785.56;5084130;27;45467;-65
2023/06/20 09:55:49;;;;;;;;;23.00;20.50;;;;;28.20;47.13;98783.47;5076286;27;45673;-65
2023/06/20 09:58:17;;;;;;;;;23.00;23.00;;;;;28.31;47.44;98769.50;5087518;27;45600;-65
2023/06/20 10:00:44;;;;;;;;;24.75;23.00;;;;;28.38;46.87;98760.44;5090750;27;45499;-65
2023/06/20 10:03:11;;;;;;;;;22.75;20.50;;;;;28.46;47.41;98763.09;5084672;27;45433;-65
2023/06/20 10:05:38;;;;;;;;;23.25;23.25;;;;;28.61;47.46;98763.09;5084638;27;46075;-65
2023/06/20 10:08:04;;;;;;;;;24.25;23.00;;;;;28.74;46.67;98766.00;5082958;27;45383;-65
2023/06/20 10:10:29;;;;;;;;;22.50;20.50;;;;;28.83;46.39;98759.50;5081801;27;45345;-65
2023/06/20 10:12:56;;;;;;;;;23.25;21.75;;;;;28.96;46.63;98739.84;5085560;27;45610;-65
2023/06/20 10:15:23;;;;;;;;;22.50;20.75;;;;;29.09;46.58;98742.75;5085506;27;45456;-66
2023/06/20 10:17:48;;;;;;;;;21.50;21.00;;;;;29.21;46.28;98737.66;5083428;27;45467;-65
2023/06/20 10:20:37;;;;;;;;;25.50;24.00;;;;;29.31;46.11;98740.94;5078981;27;45497;-66
2023/06/20 10:23:05;;;;;;;;;22.75;20.75;;;;;29.41;45.51;98737.94;5084629;27;45481;-65
2023/06/20 10:25:31;;;;;;;;;24.25;24.00;;;;;29.54;46.42;98753.56;5085638;27;45600;-65
2023/06/20 10:28:02;;;;;;;;;24.50;22.50;;;;;29.63;44.13;98738.84;5065933;27;45407;-65
2023/06/20 10:30:46;;;;;;;;;26.75;25.75;;;;;29.70;43.86;98735.13;5081859;27;45567;-66
2023/06/20 10:33:13;;;;;;;;;26.25;24.00;;;;;29.75;43.86;98732.69;5090645;27;45553;-66
2023/06/20 10:35:59;;;;;;;;;24.00;23.25;;;;;29.82;43.64;98736.34;5081468;27;47080;-66
2023/06/20 10:38:28;;;;;;;;;20.75;19.50;;;;;29.84;43.36;98728.78;5081251;27;45473;-66
2023/06/20 10:41:14;;;;;;;;;25.50;22.25;;;;;29.83;44.34;98731.72;5083771;27;45428;-66
2023/06/20 10:43:50;;;;;;;;;23.00;21.00;;;;;29.82;44.36;98736.34;5082033;27;45557;-66
2023/06/20 10:46:16;;;;;;;;;22.75;21.75;;;;;29.81;44.05;98740.09;5082688;27;45463;-66
2023/06/20 10:48:42;;;;;;;;;22.00;21.25;;;;;29.85;43.71;98741.34;5086075;27;45566;-66
2023/06/20 10:51:09;;;;;;;;;22.75;22.75;;;;;29.90;44.41;98742.66;5078786;27;45417;-66
2023/06/20 10:53:34;;;;;;;;;26.25;22.00;;;;;29.95;43.55;98738.34;5083587;27;45565;-65
2023/06/20 10:55:59;;;;;;;;;24.25;22.75;;;;;29.99;43.93;98734.22;5083377;27;46106;-66
2023/06/20 10:58:25;;;;;;;;;25.50;23.25;;;;;29.99;43.33;98745.09;5081601;27;45485;-66
2023/06/20 11:00:51;;;;;;;;;27.50;24.75;;;;;29.94;43.83;98739.38;5091878;27;45290;-66
2023/06/20 11:03:17;;;;;;;;;25.00;21.75;;;;;29.90;43.94;98743.50;5083449;27;45402;-66
2023/06/20 11:05:48;;;;;;;;;22.75;21.00;;;;;29.84;43.59;98736.09;5082764;27;46043;-66
2023/06/20 11:08:21;;;;;;;;;23.75;20.75;;;;;29.82;43.90;98728.19;5083035;27;45461;-66
2023/06/20 11:10:47;;;;;;;;;19.00;18.75;;;;;29.83;41.58;98727.13;5088099;27;45507;-66
2023/06/20 11:13:12;;;;;;;;;13.75;13.75;;;;;29.72;40.75;98743.94;5083638;27;45479;-66
2023/06/20 11:15:38;;;;;;;;;16.00;15.00;;;;;29.57;41.59;98731.44;5086620;27;46482;-66
2023/06/20 11:18:08;;;;;;;;;22.00;20.50;;;;;29.48;39.69;98728.00;5082031;27;45483;-66